Time;durP1;ratioP1;P1;durP2;ratioP2;P2;SDS_P1;SDS_P2;PMS_P1;PMS_P2;Temp;Humidity;BMP_temperature;BMP_pressure;BME280_temperature;BME280_humidity;BME280_pressure;Samples;Min_cycle;Max_cycle;Signal;HPM_P1;HPM_P2
2021/11/25 00:00:37;;;;;;;4.40;3.40;;;7.20;98.00;;;;;;5019954;28;20184;-55
2021/11/25 00:03:05;;;;;;;4.30;3.33;;;7.20;98.80;;;;;;5018507;28;20647;-55
2021/11/25 00:05:32;;;;;;;4.45;3.72;;;7.20;98.30;;;;;;5019116;28;20088;-56
2021/11/25 00:08:01;;;;;;;4.53;3.67;;;7.20;98.00;;;;;;5021168;28;20673;-55
2021/11/25 00:10:29;;;;;;;4.28;3.30;;;7.20;98.80;;;;;;5016745;28;20054;-56
2021/11/25 00:12:56;;;;;;;4.13;2.92;;;7.20;99.00;;;;;;5020089;28;20057;-55
2021/11/25 00:15:23;;;;;;;4.32;3.65;;;7.20;99.00;;;;;;5019620;28;20416;-56
2021/11/25 00:17:49;;;;;;;3.60;3.00;;;7.10;98.70;;;;;;5017501;28;20045;-56
2021/11/25 00:20:17;;;;;;;3.85;3.30;;;7.10;98.90;;;;;;5020783;28;20109;-56
2021/11/25 00:22:44;;;;;;;4.68;3.50;;;7.10;98.60;;;;;;5020831;28;20199;-54
2021/11/25 00:25:11;;;;;;;4.90;3.85;;;7.00;98.40;;;;;;5020371;28;20046;-55
2021/11/25 00:27:40;;;;;;;4.20;3.20;;;7.00;98.50;;;;;;5018932;28;20098;-54
2021/11/25 00:30:07;;;;;;;4.13;3.15;;;7.00;98.70;;;;;;5018118;28;20069;-55
2021/11/25 00:32:34;;;;;;;3.50;2.92;;;7.10;98.90;;;;;;5022819;28;20080;-55
2021/11/25 00:35:01;;;;;;;4.00;3.03;;;7.10;98.70;;;;;;5023896;28;20068;-56
2021/11/25 00:37:28;;;;;;;3.67;3.08;;;7.10;98.10;;;;;;5024624;28;20164;-55
2021/11/25 00:39:54;;;;;;;3.78;3.15;;;7.00;98.60;;;;;;5024035;28;20135;-57
2021/11/25 00:42:21;;;;;;;4.20;3.10;;;7.00;98.50;;;;;;5023817;28;20057;-56
2021/11/25 00:44:48;;;;;;;4.47;3.22;;;7.00;98.50;;;;;;5020466;28;20132;-55
2021/11/25 00:47:15;;;;;;;4.18;2.97;;;7.00;98.40;;;;;;5022998;28;20637;-55
2021/11/25 00:49:41;;;;;;;4.90;3.22;;;7.00;98.40;;;;;;5023904;28;20134;-56
2021/11/25 00:52:08;;;;;;;3.85;3.35;;;7.00;98.40;;;;;;5021685;28;20107;-52
2021/11/25 00:54:35;;;;;;;3.25;2.67;;;7.00;98.60;;;;;;5024696;28;20145;-55
2021/11/25 00:57:02;;;;;;;3.55;3.22;;;7.00;98.40;;;;;;5023465;28;20499;-54
2021/11/25 00:59:29;;;;;;;4.03;2.88;;;7.00;98.60;;;;;;5021265;28;20528;-56
2021/11/25 01:01:56;;;;;;;3.25;2.47;;;7.10;98.70;;;;;;5025355;28;20132;-54
2021/11/25 01:04:24;;;;;;;3.13;2.55;;;7.10;98.50;;;;;;5023544;28;20626;-55
2021/11/25 01:06:51;;;;;;;3.15;2.55;;;7.10;97.90;;;;;;5019963;28;20072;-57
2021/11/25 01:09:17;;;;;;;3.00;2.45;;;7.10;97.90;;;;;;5023910;28;20472;-54
2021/11/25 01:11:44;;;;;;;4.20;3.10;;;7.10;98.50;;;;;;5022818;28;20496;-57
2021/11/25 01:14:12;;;;;;;4.15;2.72;;;7.10;97.90;;;;;;5023426;28;20140;-56
2021/11/25 01:16:38;;;;;;;3.65;2.67;;;7.10;98.50;;;;;;5022911;28;20088;-56
2021/11/25 01:19:05;;;;;;;4.22;2.40;;;7.10;99.30;;;;;;5023034;28;20496;-55
2021/11/25 01:21:32;;;;;;;4.72;2.78;;;7.10;98.70;;;;;;5024051;28;20041;-55
2021/11/25 01:23:59;;;;;;;2.92;2.35;;;7.20;98.20;;;;;;5023302;28;20135;-56
2021/11/25 01:26:26;;;;;;;2.88;2.50;;;7.20;98.40;;;;;;5023250;28;20128;-57
2021/11/25 01:28:52;;;;;;;3.55;3.15;;;7.20;99.30;;;;;;5023102;28;20050;-55
2021/11/25 01:31:19;;;;;;;3.17;2.50;;;7.20;99.40;;;;;;5021913;28;20073;-55
2021/11/25 01:33:46;;;;;;;4.03;2.97;;;7.20;99.30;;;;;;5022059;28;20136;-54
2021/11/25 01:36:13;;;;;;;4.07;2.88;;;7.20;98.60;;;;;;5023964;28;20081;-56
2021/11/25 01:38:39;;;;;;;3.30;2.63;;;7.20;99.40;;;;;;5022178;28;20052;-55
2021/11/25 01:41:06;;;;;;;3.55;2.58;;;7.20;99.40;;;;;;5022818;28;20045;-54
2021/11/25 01:43:37;;;;;;;4.18;3.05;;;7.20;99.10;;;;;;5022881;28;20120;-53
2021/11/25 01:46:11;;;;;;;3.15;2.25;;;7.20;98.30;;;;;;5021763;28;20437;-55
2021/11/25 01:48:39;;;;;;;3.35;2.90;;;7.20;98.70;;;;;;5022394;28;20053;-55
2021/11/25 01:51:05;;;;;;;3.30;2.50;;;7.10;99.10;;;;;;5023238;28;20420;-52
2021/11/25 01:53:32;;;;;;;3.53;2.88;;;7.10;99.40;;;;;;5023266;28;20049;-55
2021/11/25 01:56:00;;;;;;;3.10;2.80;;;7.10;99.90;;;;;;5021827;28;20121;-56
2021/11/25 01:58:26;;;;;;;2.70;2.30;;;7.10;99.90;;;;;;5021937;28;20085;-56
2021/11/25 02:00:54;;;;;;;4.03;3.35;;;7.10;99.90;;;;;;5021600;28;20652;-56
2021/11/25 02:03:23;;;;;;;3.17;2.50;;;7.10;99.80;;;;;;5021423;28;20049;-57
2021/11/25 02:05:51;;;;;;;3.42;2.75;;;7.00;99.90;;;;;;5020195;28;20793;-56
2021/11/25 02:08:17;;;;;;;3.53;2.60;;;7.10;99.90;;;;;;5022456;28;20140;-55
2021/11/25 02:10:46;;;;;;;2.67;2.10;;;7.00;99.00;;;;;;5022284;28;20099;-53
2021/11/25 02:13:14;;;;;;;4.35;2.85;;;7.10;98.80;;;;;;5022240;28;20049;-56
2021/11/25 02:15:40;;;;;;;4.28;3.00;;;7.10;98.90;;;;;;5023172;28;20557;-56
2021/11/25 02:18:11;;;;;;;3.40;2.65;;;7.20;99.80;;;;;;5024936;28;20481;-56
2021/11/25 02:20:41;;;;;;;3.95;2.90;;;7.20;99.40;;;;;;5025328;28;20080;-56
2021/11/25 02:23:09;;;;;;;3.90;2.80;;;7.20;99.60;;;;;;5025294;28;20053;-54
2021/11/25 02:25:36;;;;;;;3.65;2.95;;;7.20;99.80;;;;;;5025309;28;20120;-55
2021/11/25 02:28:03;;;;;;;3.60;2.75;;;7.20;99.40;;;;;;5024675;28;20128;-56
2021/11/25 02:30:30;;;;;;;4.07;3.67;;;7.10;99.00;;;;;;5019555;28;20580;-56
2021/11/25 02:32:57;;;;;;;4.45;3.50;;;7.00;99.30;;;;;;5027409;28;20475;-54
2021/11/25 02:35:26;;;;;;;3.95;3.25;;;7.00;99.30;;;;;;5027714;28;20073;-52
2021/11/25 02:37:53;;;;;;;4.72;3.97;;;7.00;99.50;;;;;;5025954;28;20081;-55
2021/11/25 02:40:32;;;;;;;6.20;5.43;;;7.00;99.90;;;;;;5027743;28;20087;-56
2021/11/25 02:43:05;;;;;;;6.35;5.65;;;7.00;99.90;;;;;;5025252;28;20145;-51
2021/11/25 02:46:06;;;;;;;7.45;6.65;;;6.90;99.90;;;;;;5020998;28;20096;-57
2021/11/25 02:48:44;;;;;;;7.93;6.78;;;6.90;99.90;;;;;;5012914;28;20521;-56
2021/11/25 02:51:13;;;;;;;8.45;6.47;;;6.90;99.90;;;;;;5023119;28;20079;-54
2021/11/25 02:53:39;;;;;;;10.05;7.70;;;6.90;99.90;;;;;;5025603;28;20073;-56
2021/11/25 02:56:08;;;;;;;7.50;6.38;;;6.90;99.90;;;;;;5025391;28;20099;-55
2021/11/25 02:58:35;;;;;;;8.30;7.38;;;6.90;99.90;;;;;;5025095;28;20077;-52
2021/11/25 03:01:17;;;;;;;6.57;5.72;;;6.90;99.90;;;;;;5024344;28;20100;-55
2021/11/25 03:03:44;;;;;;;7.57;6.05;;;6.90;99.90;;;;;;5024309;28;20112;-55
2021/11/25 03:06:11;;;;;;;7.28;5.55;;;6.80;99.90;;;;;;5025484;28;20125;-56
2021/11/25 03:08:38;;;;;;;9.77;7.40;;;6.80;99.90;;;;;;5024726;28;20077;-53
2021/11/25 03:11:07;;;;;;;10.02;6.80;;;6.80;99.90;;;;;;5023629;28;20056;-54
2021/11/25 03:13:36;;;;;;;10.23;7.50;;;6.80;99.90;;;;;;5025824;28;20120;-56
2021/11/25 03:16:03;;;;;;;12.50;7.72;;;6.80;99.90;;;;;;5024308;28;20073;-55
2021/11/25 03:18:30;;;;;;;12.38;9.38;;;6.80;99.90;;;;;;5023557;28;20048;-54
2021/11/25 03:20:57;;;;;;;12.25;10.10;;;6.80;99.90;;;;;;5024541;28;20085;-55
2021/11/25 03:23:26;;;;;;;9.50;8.00;;;6.80;99.90;;;;;;5024921;28;20133;-53
2021/11/25 03:25:53;;;;;;;10.52;7.70;;;6.80;99.90;;;;;;5022234;28;20069;-56
2021/11/25 03:28:20;;;;;;;11.82;10.02;;;6.80;99.90;;;;;;5024499;28;20125;-54
2021/11/25 03:30:53;;;;;;;15.43;11.88;;;6.70;99.90;;;;;;5022504;28;20129;-55
2021/11/25 03:33:27;;;;;;;;;;;6.70;99.90;;;;;;5025230;28;20062;-53
2021/11/25 03:35:55;;;;;;;9.75;8.73;;;6.70;99.90;;;;;;5023098;28;19974;-56
2021/11/25 03:38:21;;;;;;;10.00;8.45;;;6.70;99.90;;;;;;5024343;28;20121;-51
2021/11/25 03:40:48;;;;;;;13.05;10.23;;;6.70;99.90;;;;;;5022278;28;20081;-54
2021/11/25 03:43:15;;;;;;;12.73;10.30;;;6.60;99.90;;;;;;5025295;28;20084;-56
2021/11/25 03:45:42;;;;;;;9.57;8.02;;;6.60;99.90;;;;;;5023638;28;20129;-56
2021/11/25 03:48:09;;;;;;;10.40;7.80;;;6.70;99.90;;;;;;5024565;28;20121;-56
2021/11/25 03:50:36;;;;;;;9.25;7.40;;;6.70;99.90;;;;;;5024853;28;20088;-56
2021/11/25 03:53:03;;;;;;;9.90;8.40;;;6.70;99.90;;;;;;5024968;28;20080;-56
2021/11/25 03:55:29;;;;;;;9.30;7.93;;;6.70;99.90;;;;;;5024830;28;20643;-56
2021/11/25 03:57:56;;;;;;;10.73;8.02;;;6.70;99.90;;;;;;5024151;28;20092;-54
2021/11/25 04:00:23;;;;;;;9.23;7.63;;;6.70;99.90;;;;;;5023649;28;20484;-54
2021/11/25 04:02:50;;;;;;;10.30;9.20;;;6.80;99.90;;;;;;5022295;28;20110;-56
2021/11/25 04:05:17;;;;;;;11.63;8.73;;;6.70;99.90;;;;;;5025699;28;20501;-55
2021/11/25 04:07:44;;;;;;;10.90;8.77;;;6.70;99.90;;;;;;5029066;28;20160;-57
2021/11/25 04:10:12;;;;;;;11.07;8.48;;;6.70;99.90;;;;;;5026466;28;20053;-55
2021/11/25 04:12:38;;;;;;;9.35;7.00;;;6.70;99.90;;;;;;5028319;28;20120;-53
2021/11/25 04:15:06;;;;;;;10.88;8.88;;;6.80;99.90;;;;;;5028178;28;20053;-56
2021/11/25 04:17:32;;;;;;;10.55;8.07;;;6.80;99.90;;;;;;5028590;28;20077;-55
2021/11/25 04:19:59;;;;;;;12.95;10.48;;;6.80;99.90;;;;;;5028411;28;20112;-56
2021/11/25 04:22:26;;;;;;;14.75;11.68;;;6.70;99.90;;;;;;5028310;28;20528;-58
2021/11/25 04:24:53;;;;;;;14.68;11.38;;;6.70;99.90;;;;;;5029322;28;20490;-56
2021/11/25 04:27:20;;;;;;;16.90;12.10;;;6.70;99.90;;;;;;5028012;28;20084;-58
2021/11/25 04:30:37;;;;;;;12.00;9.77;;;6.70;99.90;;;;;;5027420;28;20612;-56
2021/11/25 04:35:33;;;;;;;13.05;10.05;;;6.70;99.90;;;;;;5027100;28;20137;-56
2021/11/25 04:38:03;;;;;;;11.82;9.20;;;6.70;99.90;;;;;;5026959;28;20045;-55
2021/11/25 04:40:35;;;;;;;12.38;9.88;;;6.70;99.90;;;;;;5028001;28;20044;-56
2021/11/25 04:43:03;;;;;;;12.23;10.23;;;6.70;99.90;;;;;;5027933;28;20099;-54
2021/11/25 04:45:29;;;;;;;13.05;9.07;;;6.70;99.90;;;;;;5027123;28;20041;-56
2021/11/25 04:47:56;;;;;;;13.77;10.10;;;6.70;99.90;;;;;;5028238;28;20144;-55
2021/11/25 04:50:23;;;;;;;14.13;10.40;;;6.70;99.90;;;;;;5035016;28;20095;-53
2021/11/25 04:52:50;;;;;;;11.13;8.55;;;6.70;99.90;;;;;;5028035;28;20587;-55
2021/11/25 04:55:16;;;;;;;11.45;9.57;;;6.70;99.90;;;;;;5027889;28;20465;-56
2021/11/25 04:57:43;;;;;;;9.75;7.45;;;6.70;99.90;;;;;;5027322;28;20141;-54
2021/11/25 05:00:10;;;;;;;10.88;8.15;;;6.70;99.90;;;;;;5027173;28;20540;-55
2021/11/25 05:02:37;;;;;;;9.80;8.15;;;6.60;99.90;;;;;;5027365;28;20564;-56
2021/11/25 05:05:05;;;;;;;10.85;7.88;;;6.60;99.90;;;;;;5027551;28;20409;-55
2021/11/25 05:07:32;;;;;;;13.60;8.80;;;6.60;99.90;;;;;;5025125;28;20045;-55
2021/11/25 05:09:58;;;;;;;13.35;7.88;;;6.60;99.90;;;;;;5027488;28;20065;-56
2021/11/25 05:12:25;;;;;;;10.05;7.13;;;6.60;99.90;;;;;;5027661;28;20132;-55
2021/11/25 05:14:52;;;;;;;8.93;6.47;;;6.50;99.90;;;;;;5024361;28;20460;-54
2021/11/25 05:17:19;;;;;;;8.57;5.70;;;6.40;99.90;;;;;;5025867;28;20049;-54
2021/11/25 05:19:46;;;;;;;8.07;5.55;;;6.40;99.90;;;;;;5027303;28;20095;-58
2021/11/25 05:22:12;;;;;;;9.32;6.07;;;6.40;99.90;;;;;;5025053;28;20080;-56
2021/11/25 05:24:40;;;;;;;8.00;5.28;;;6.30;99.90;;;;;;5027651;28;20602;-59
2021/11/25 05:27:07;;;;;;;6.68;4.38;;;6.20;99.90;;;;;;5027083;28;20077;-55
2021/11/25 05:29:34;;;;;;;9.27;4.78;;;6.10;99.90;;;;;;5026637;28;20572;-56
2021/11/25 05:32:01;;;;;;;5.68;4.22;;;6.10;99.90;;;;;;5027197;28;20631;-55
2021/11/25 05:34:28;;;;;;;6.53;4.50;;;6.00;99.90;;;;;;5027117;28;20041;-54
2021/11/25 05:36:55;;;;;;;6.65;4.18;;;6.00;99.90;;;;;;5027097;28;20073;-56
2021/11/25 05:39:21;;;;;;;8.85;4.78;;;5.90;99.90;;;;;;5027436;28;20586;-55
2021/11/25 05:41:48;;;;;;;5.28;3.45;;;5.90;99.90;;;;;;5026510;28;20118;-55
2021/11/25 05:44:15;;;;;;;5.90;3.40;;;5.80;99.90;;;;;;5026000;28;20053;-55
2021/11/25 05:46:42;;;;;;;6.28;3.90;;;5.80;99.90;;;;;;5026598;28;20679;-55
2021/11/25 05:49:09;;;;;;;5.55;3.20;;;5.70;99.90;;;;;;5023316;28;20065;-54
2021/11/25 05:51:35;;;;;;;6.25;2.92;;;5.70;99.90;;;;;;5025215;28;20156;-54
2021/11/25 05:54:02;;;;;;;3.63;2.33;;;5.60;99.90;;;;;;5025039;28;20409;-55
2021/11/25 05:56:30;;;;;;;4.88;2.40;;;5.60;99.90;;;;;;5024136;28;20084;-53
2021/11/25 05:58:58;;;;;;;4.15;2.00;;;5.50;99.90;;;;;;5023956;28;20083;-56
2021/11/25 06:01:25;;;;;;;3.63;1.73;;;5.50;99.90;;;;;;5022990;28;20163;-56
2021/11/25 06:03:53;;;;;;;4.97;2.55;;;5.50;99.90;;;;;;5020523;28;20385;-55
2021/11/25 06:06:20;;;;;;;3.70;2.35;;;5.40;99.90;;;;;;5021265;28;20148;-55
2021/11/25 06:08:48;;;;;;;3.58;1.98;;;5.40;99.90;;;;;;5021933;28;20493;-56
2021/11/25 06:11:15;;;;;;;4.32;2.25;;;5.30;99.90;;;;;;5020712;28;20140;-55
2021/11/25 06:13:42;;;;;;;5.78;2.17;;;5.30;99.90;;;;;;5021733;28;20076;-55
2021/11/25 06:16:09;;;;;;;3.15;1.95;;;5.30;99.90;;;;;;5018999;28;20128;-56
2021/11/25 06:18:36;;;;;;;2.78;1.77;;;5.30;99.90;;;;;;5020516;28;20464;-55
2021/11/25 06:21:03;;;;;;;6.18;2.15;;;5.30;99.90;;;;;;5020468;28;20088;-55
2021/11/25 06:23:30;;;;;;;5.03;1.60;;;5.20;99.90;;;;;;5021129;28;20076;-54
2021/11/25 06:25:56;;;;;;;3.60;1.70;;;5.20;99.90;;;;;;5019662;28;20422;-55
2021/11/25 06:28:23;;;;;;;3.15;1.67;;;5.10;99.90;;;;;;5021169;28;20083;-56
2021/11/25 06:30:50;;;;;;;5.60;2.13;;;5.10;99.90;;;;;;5019435;28;20045;-54
2021/11/25 06:33:17;;;;;;;4.65;1.95;;;5.10;99.90;;;;;;5020799;28;20252;-54
2021/11/25 06:35:44;;;;;;;4.82;2.03;;;5.00;99.90;;;;;;5020355;28;20461;-55
2021/11/25 06:38:11;;;;;;;3.03;1.45;;;5.00;99.90;;;;;;5017935;28;20115;-55
2021/11/25 06:40:37;;;;;;;3.67;1.60;;;4.90;99.90;;;;;;5016758;28;20151;-55
2021/11/25 06:43:07;;;;;;;4.80;1.30;;;4.90;99.90;;;;;;5016688;28;20173;-53
2021/11/25 06:45:35;;;;;;;3.22;1.75;;;4.90;99.90;;;;;;5016185;28;20073;-55
2021/11/25 06:48:02;;;;;;;5.50;2.22;;;4.80;99.90;;;;;;5015083;28;20042;-57
2021/11/25 06:50:28;;;;;;;5.00;1.65;;;4.80;99.90;;;;;;5017005;28;20152;-56
2021/11/25 06:52:55;;;;;;;3.35;1.35;;;4.80;99.90;;;;;;5017299;28;20037;-55
2021/11/25 06:55:22;;;;;;;3.65;1.48;;;4.80;99.90;;;;;;5017530;28;20068;-55
2021/11/25 06:57:50;;;;;;;5.22;1.70;;;4.70;99.90;;;;;;5015724;28;20072;-53
2021/11/25 07:00:23;;;;;;;4.30;1.40;;;4.70;99.90;;;;;;5016365;28;20136;-56
2021/11/25 07:02:53;;;;;;;3.92;2.03;;;4.60;99.90;;;;;;5017750;28;20516;-55
2021/11/25 07:05:23;;;;;;;2.80;1.20;;;4.60;99.90;;;;;;5018448;28;20409;-54
2021/11/25 07:07:50;;;;;;;6.03;1.40;;;4.60;99.90;;;;;;5017542;28;20507;-56
2021/11/25 07:10:17;;;;;;;3.95;1.50;;;4.50;99.90;;;;;;5017291;28;20065;-55
2021/11/25 07:12:46;;;;;;;3.08;1.00;;;4.50;99.90;;;;;;5017796;28;20211;-55
2021/11/25 07:15:13;;;;;;;4.05;1.40;;;4.50;99.90;;;;;;5017250;28;20077;-54
2021/11/25 07:17:40;;;;;;;2.30;1.00;;;4.40;99.90;;;;;;5017197;28;20475;-54
2021/11/25 07:20:09;;;;;;;2.58;1.13;;;4.40;99.90;;;;;;5016202;28;20341;-54
2021/11/25 07:22:38;;;;;;;3.17;1.30;;;4.30;99.90;;;;;;5016389;28;20103;-54
2021/11/25 07:25:09;;;;;;;3.20;1.05;;;4.30;99.90;;;;;;5015218;28;20065;-54
2021/11/25 07:27:35;;;;;;;3.22;0.95;;;4.20;99.90;;;;;;5017374;28;20140;-55
2021/11/25 07:30:04;;;;;;;3.47;1.35;;;4.20;99.90;;;;;;5016606;28;20353;-53
2021/11/25 07:32:31;;;;;;;3.00;1.05;;;4.10;99.90;;;;;;5017415;28;20071;-55
2021/11/25 07:34:58;;;;;;;2.25;1.00;;;4.10;99.90;;;;;;5016307;28;20060;-53
2021/11/25 07:37:24;;;;;;;2.92;1.25;;;4.10;99.90;;;;;;5017465;28;20400;-54
2021/11/25 07:39:51;;;;;;;5.78;1.45;;;4.10;99.90;;;;;;4999953;28;20461;-54
2021/11/25 07:42:18;;;;;;;3.10;1.02;;;4.10;99.90;;;;;;5015145;28;20072;-53
2021/11/25 07:44:45;;;;;;;3.83;1.50;;;4.00;99.90;;;;;;5015541;28;20164;-55
2021/11/25 07:47:12;;;;;;;2.53;1.27;;;4.00;99.90;;;;;;5018141;28;20057;-53
2021/11/25 07:49:38;;;;;;;2.05;0.90;;;4.00;99.90;;;;;;5010543;28;20506;-52
2021/11/25 07:52:08;;;;;;;2.00;0.93;;;4.00;99.90;;;;;;5018218;28;20174;-54
2021/11/25 07:54:35;;;;;;;3.80;0.82;;;4.00;99.90;;;;;;5016007;28;20057;-55
2021/11/25 07:57:02;;;;;;;2.97;1.15;;;4.00;99.90;;;;;;5017599;28;20088;-54
2021/11/25 07:59:29;;;;;;;3.03;1.10;;;3.90;99.90;;;;;;5016436;28;20480;-54
2021/11/25 08:01:56;;;;;;;1.60;0.88;;;3.90;99.90;;;;;;5017623;28;20448;-56
2021/11/25 08:04:24;;;;;;;3.33;1.60;;;3.90;99.90;;;;;;5018043;28;20049;-51
2021/11/25 08:06:51;;;;;;;2.92;1.10;;;3.90;99.90;;;;;;5018023;28;20129;-55
2021/11/25 08:09:18;;;;;;;2.85;1.52;;;3.90;99.90;;;;;;5017700;28;20156;-53
2021/11/25 08:11:44;;;;;;;3.05;0.85;;;3.90;99.90;;;;;;5017995;28;20429;-55
2021/11/25 08:14:11;;;;;;;3.00;0.93;;;4.00;99.90;;;;;;5017173;28;20115;-55
2021/11/25 08:16:38;;;;;;;1.90;0.70;;;3.90;99.90;;;;;;5017594;28;20140;-56
2021/11/25 08:19:06;;;;;;;2.70;1.08;;;3.90;99.90;;;;;;5016106;28;20461;-51
2021/11/25 08:21:35;;;;;;;1.85;0.80;;;3.90;99.90;;;;;;5017324;28;20127;-55
2021/11/25 08:24:02;;;;;;;2.90;1.33;;;3.90;99.90;;;;;;5017517;28;20053;-54
2021/11/25 08:26:29;;;;;;;4.50;1.40;;;4.00;99.90;;;;;;5017011;28;20735;-55
2021/11/25 08:28:56;;;;;;;3.10;1.23;;;4.00;99.90;;;;;;5015172;28;20315;-56
2021/11/25 08:31:23;;;;;;;2.92;1.23;;;4.00;99.90;;;;;;5015784;28;20556;-55
2021/11/25 08:33:50;;;;;;;2.50;1.30;;;4.00;99.90;;;;;;5016277;28;20315;-54
2021/11/25 08:36:17;;;;;;;3.25;1.20;;;4.00;99.90;;;;;;5017539;28;20103;-55
2021/11/25 08:38:44;;;;;;;3.13;1.75;;;4.10;99.90;;;;;;5016988;28;20053;-55
2021/11/25 08:41:10;;;;;;;4.28;1.42;;;4.10;99.90;;;;;;5017426;28;20101;-51
2021/11/25 08:43:37;;;;;;;4.18;1.40;;;4.10;99.90;;;;;;5016981;28;20303;-57
2021/11/25 08:46:04;;;;;;;4.38;1.80;;;4.20;99.90;;;;;;5016511;28;20037;-52
2021/11/25 08:48:31;;;;;;;3.47;1.63;;;4.20;99.90;;;;;;5016761;28;20062;-58
2021/11/25 08:50:58;;;;;;;5.93;1.75;;;4.20;99.90;;;;;;5017314;28;20672;-56
2021/11/25 08:53:26;;;;;;;3.25;1.25;;;4.20;99.90;;;;;;5020128;28;20462;-55
2021/11/25 08:55:52;;;;;;;3.85;1.50;;;4.20;99.90;;;;;;5019134;28;20061;-58
2021/11/25 08:58:19;;;;;;;2.80;1.50;;;4.30;99.90;;;;;;5019932;28;20076;-55
2021/11/25 09:00:50;;;;;;;3.05;1.08;;;4.20;99.90;;;;;;5017816;28;20056;-51
2021/11/25 09:03:17;;;;;;;5.75;1.27;;;4.30;99.90;;;;;;5017588;28;20048;-57
2021/11/25 09:05:44;;;;;;;5.07;1.52;;;4.30;99.80;;;;;;5021142;28;20144;-56
2021/11/25 09:08:11;;;;;;;8.32;1.88;;;4.30;99.80;;;;;;5019740;28;20053;-56
2021/11/25 09:10:38;;;;;;;3.72;1.40;;;4.30;99.60;;;;;;5020784;28;20162;-54
2021/11/25 09:13:05;;;;;;;6.25;1.58;;;4.40;99.50;;;;;;5018946;28;20573;-55
2021/11/25 09:15:38;;;;;;;4.13;1.60;;;4.40;99.60;;;;;;5020208;28;20053;-54
2021/11/25 09:18:06;;;;;;;4.38;1.45;;;4.50;99.50;;;;;;5019126;28;20049;-55
2021/11/25 09:20:34;;;;;;;5.07;1.65;;;4.50;99.20;;;;;;5020655;28;20190;-55
2021/11/25 09:23:02;;;;;;;5.00;1.60;;;4.50;99.50;;;;;;5020082;28;20119;-54
2021/11/25 09:25:29;;;;;;;4.00;1.20;;;4.50;99.20;;;;;;5019279;28;20529;-54
2021/11/25 09:27:56;;;;;;;3.10;1.13;;;4.50;99.10;;;;;;5020155;28;20579;-56
2021/11/25 09:30:23;;;;;;;3.75;1.33;;;4.60;99.00;;;;;;5017924;28;20049;-55
2021/11/25 09:32:50;;;;;;;2.13;1.23;;;4.60;99.00;;;;;;5019753;28;20072;-56
2021/11/25 09:35:18;;;;;;;2.78;1.63;;;4.60;99.10;;;;;;5020448;28;20077;-56
2021/11/25 09:37:45;;;;;;;3.53;1.38;;;4.70;98.80;;;;;;5019959;28;20160;-53
2021/11/25 09:40:22;;;;;;;2.80;1.08;;;4.70;98.80;;;;;;5015286;28;20077;-55
2021/11/25 09:42:50;;;;;;;2.67;1.20;;;4.70;98.70;;;;;;5014992;28;20075;-52
2021/11/25 09:45:19;;;;;;;5.05;1.33;;;4.70;98.50;;;;;;5015784;28;20487;-52
2021/11/25 09:47:46;;;;;;;2.88;1.13;;;4.80;98.70;;;;;;5017706;28;20123;-56
2021/11/25 09:50:13;;;;;;;5.28;1.52;;;4.80;98.50;;;;;;5016751;28;20889;-56
2021/11/25 09:52:40;;;;;;;3.35;1.48;;;4.80;98.10;;;;;;5018580;28;20045;-53
2021/11/25 09:55:07;;;;;;;4.30;1.30;;;4.80;98.50;;;;;;5018543;28;20045;-55
2021/11/25 09:57:34;;;;;;;3.63;1.55;;;4.90;98.40;;;;;;5018273;28;20045;-55
2021/11/25 10:00:01;;;;;;;4.22;2.00;;;4.90;98.40;;;;;;4997439;28;20050;-53
2021/11/25 10:02:28;;;;;;;5.18;1.70;;;5.00;98.10;;;;;;5015230;28;20069;-56
2021/11/25 10:04:54;;;;;;;3.80;1.40;;;5.00;98.20;;;;;;5014488;28;20654;-55
2021/11/25 10:07:32;;;;;;;2.45;1.17;;;5.10;98.20;;;;;;5017861;28;20457;-54
2021/11/25 10:10:17;;;;;;;2.40;1.05;;;5.10;98.00;;;;;;5015627;28;20060;-56
2021/11/25 10:12:46;;;;;;;3.63;1.00;;;5.20;97.80;;;;;;5015256;28;20144;-55
2021/11/25 10:15:29;;;;;;;2.65;1.10;;;5.20;97.90;;;;;;5016161;28;20165;-53
2021/11/25 10:17:58;;;;;;;4.47;1.00;;;5.30;97.50;;;;;;5017028;28;20076;-56
2021/11/25 10:20:30;;;;;;;4.47;1.40;;;5.30;97.60;;;;;;5017183;28;20089;-52
2021/11/25 10:23:04;;;;;;;3.45;1.40;;;5.30;97.50;;;;;;5018267;28;20330;-54
2021/11/25 10:25:50;;;;;;;;;;;5.30;97.40;;;;;;5018596;28;20136;-54
2021/11/25 10:28:57;;;;;;;6.28;1.50;;;5.40;97.40;;;;;;5017655;28;19928;-56
2021/11/25 10:31:37;;;;;;;5.82;1.33;;;5.40;97.30;;;;;;5015164;28;20094;-55
2021/11/25 10:34:11;;;;;;;5.10;1.15;;;5.50;97.90;;;;;;5016746;28;20500;-51
2021/11/25 10:41:53;;;;;;;4.70;1.33;;;5.50;96.90;;;;;;5016745;28;20421;-56
2021/11/25 10:44:24;;;;;;;3.42;1.27;;;5.60;97.20;;;;;;5015618;28;20077;-55
2021/11/25 10:47:01;;;;;;;4.80;1.25;;;5.60;97.10;;;;;;5017483;28;20057;-52
2021/11/25 10:49:49;;;;;;;5.35;1.20;;;5.70;96.90;;;;;;5016919;28;20552;-56
2021/11/25 10:52:25;;;;;;;3.72;1.20;;;5.70;96.60;;;;;;5017712;28;20057;-54
2021/11/25 10:55:08;;;;;;;4.68;2.03;;;5.70;96.80;;;;;;5011534;28;20053;-57
2021/11/25 10:57:47;;;;;;;3.33;1.00;;;5.80;96.80;;;;;;5015723;28;20127;-54
2021/11/25 11:00:24;;;;;;;5.03;1.52;;;5.70;96.50;;;;;;5016195;28;20079;-55
2021/11/25 11:03:10;;;;;;;4.15;1.40;;;5.80;96.60;;;;;;5014316;28;20145;-55
2021/11/25 11:05:57;;;;;;;5.53;1.90;;;5.90;96.50;;;;;;5017550;28;20552;-56
2021/11/25 11:08:27;;;;;;;3.40;1.55;;;5.80;96.70;;;;;;5017331;28;20567;-57
2021/11/25 11:11:00;;;;;;;4.47;1.35;;;5.80;96.20;;;;;;5011863;28;20572;-54
2021/11/25 11:16:23;;;;;;;5.55;1.58;;;5.90;96.30;;;;;;5015963;28;20416;-55
2021/11/25 11:19:00;;;;;;;3.75;1.70;;;6.00;96.60;;;;;;5016833;28;20125;-57
2021/11/25 11:21:44;;;;;;;6.00;1.75;;;6.10;95.90;;;;;;5016714;28;20144;-54
2021/11/25 11:24:25;;;;;;;4.10;1.45;;;6.10;96.30;;;;;;5015240;28;20076;-51
2021/11/25 11:26:59;;;;;;;3.08;1.40;;;6.10;96.20;;;;;;5016764;28;20139;-55
2021/11/25 11:29:27;;;;;;;5.20;1.60;;;6.20;96.00;;;;;;5014368;28;20053;-58
2021/11/25 11:31:56;;;;;;;8.60;2.13;;;6.30;95.30;;;;;;5016081;28;20337;-54
2021/11/25 11:34:23;;;;;;;5.68;1.50;;;6.30;95.30;;;;;;5016320;28;20061;-55
2021/11/25 11:36:52;;;;;;;5.28;1.83;;;6.30;95.70;;;;;;5016926;28;20134;-55
2021/11/25 11:39:21;;;;;;;3.05;1.40;;;6.30;95.80;;;;;;5013100;28;20180;-56
2021/11/25 11:41:49;;;;;;;4.65;1.38;;;6.40;95.50;;;;;;5016286;28;20207;-55
2021/11/25 11:44:20;;;;;;;5.20;1.95;;;6.50;95.30;;;;;;5015721;28;20466;-55
2021/11/25 11:46:47;;;;;;;3.90;1.40;;;6.60;95.00;;;;;;5016413;28;20041;-55
2021/11/25 11:49:15;;;;;;;4.25;1.77;;;6.70;94.90;;;;;;5016574;28;20488;-54
2021/11/25 11:51:41;;;;;;;6.60;2.15;;;6.80;94.80;;;;;;5014882;28;20583;-54
2021/11/25 11:54:17;;;;;;;3.15;1.70;;;6.80;94.80;;;;;;5016357;28;20115;-55
2021/11/25 11:56:45;;;;;;;8.98;2.30;;;6.90;94.70;;;;;;5014077;28;20049;-54
2021/11/25 11:59:12;;;;;;;2.90;1.55;;;6.90;93.80;;;;;;5015805;28;20164;-52
2021/11/25 12:01:39;;;;;;;5.30;1.83;;;7.10;93.90;;;;;;5016089;28;20054;-55
2021/11/25 12:04:09;;;;;;;3.80;1.77;;;7.20;94.30;;;;;;5013748;28;20049;-51
2021/11/25 12:06:40;;;;;;;5.78;2.63;;;7.20;93.60;;;;;;5016510;28;20501;-55
2021/11/25 12:09:16;;;;;;;3.70;1.67;;;7.30;93.20;;;;;;5016296;28;20050;-54
2021/11/25 12:12:13;;;;;;;3.97;1.60;;;7.50;93.10;;;;;;5015409;28;20098;-54
2021/11/25 12:14:54;;;;;;;3.75;1.50;;;7.50;92.90;;;;;;5007755;28;20554;-55
2021/11/25 12:17:40;;;;;;;3.17;1.63;;;7.50;93.00;;;;;;5016505;28;20115;-54
2021/11/25 12:20:20;;;;;;;3.70;1.83;;;7.60;93.00;;;;;;5011617;28;20184;-55
2021/11/25 12:22:49;;;;;;;4.13;1.90;;;7.70;93.20;;;;;;5016187;28;20050;-56
2021/11/25 12:25:34;;;;;;;4.25;1.70;;;7.90;92.70;;;;;;5016612;28;20099;-56
2021/11/25 12:28:22;;;;;;;5.53;1.95;;;7.90;92.20;;;;;;5019779;28;20053;-54
2021/11/25 12:31:35;;;;;;;5.70;2.20;;;8.00;91.80;;;;;;5017806;28;20069;-54
2021/11/25 12:33:48;;;;;;;4.10;1.50;;;8.00;91.60;;;;;;5016234;28;20049;-54
2021/11/25 12:36:34;;;;;;;4.28;1.55;;;8.20;92.10;;;;;;5018732;28;20072;-54
2021/11/25 12:39:01;;;;;;;3.17;1.20;;;8.40;91.30;;;;;;5019936;28;20068;-55
2021/11/25 12:41:30;;;;;;;4.28;1.58;;;8.30;91.30;;;;;;5017946;28;20536;-53
2021/11/25 12:43:57;;;;;;;2.63;1.50;;;8.30;91.70;;;;;;5019648;28;20072;-54
2021/11/25 12:46:24;;;;;;;3.83;1.20;;;8.40;91.50;;;;;;5018355;28;20155;-53
2021/11/25 12:48:52;;;;;;;5.53;1.80;;;8.10;91.40;;;;;;5018292;28;20045;-56
2021/11/25 12:51:26;;;;;;;6.03;2.10;;;7.90;91.60;;;;;;5019580;28;20085;-51
2021/11/25 12:53:57;;;;;;;5.82;1.67;;;7.80;92.30;;;;;;5019271;28;20709;-55
2021/11/25 12:56:28;;;;;;;4.45;1.80;;;7.90;92.00;;;;;;5017836;28;20140;-54
2021/11/25 12:59:05;;;;;;;4.07;1.70;;;7.90;91.80;;;;;;5019429;28;20192;-55
2021/11/25 13:01:37;;;;;;;4.57;1.45;;;7.90;92.00;;;;;;5015594;28;20049;-55
2021/11/25 13:04:26;;;;;;;4.30;1.70;;;8.10;91.90;;;;;;5020198;28;20299;-54
2021/11/25 13:06:54;;;;;;;3.63;1.48;;;8.20;91.70;;;;;;4999703;28;20176;-56
2021/11/25 13:09:29;;;;;;;4.90;1.85;;;8.40;91.50;;;;;;5013593;28;20053;-53
2021/11/25 13:11:57;;;;;;;3.22;1.30;;;8.60;91.50;;;;;;5019176;28;20128;-55
2021/11/25 13:14:26;;;;;;;3.95;1.80;;;8.70;91.00;;;;;;5017411;28;20139;-54
2021/11/25 13:16:54;;;;;;;5.13;2.88;;;8.50;90.80;;;;;;5018471;28;20232;-55